sensor_id;sensor_type;location;lat;lon;timestamp;pressure;altitude;pressure_sealevel;temperature;humidity
55590;BME280;41452;42.780;23.116;2023-05-03T00:00:01;94679.84;;;10.83;55.47
55590;BME280;41452;42.780;23.116;2023-05-03T00:02:26;94679.28;;;10.81;56.00
55590;BME280;41452;42.780;23.116;2023-05-03T00:04:52;94662.66;;;10.69;55.10
55590;BME280;41452;42.780;23.116;2023-05-03T00:07:18;94672.75;;;10.72;55.91
55590;BME280;41452;42.780;23.116;2023-05-03T00:09:44;94673.63;;;10.65;55.85
55590;BME280;41452;42.780;23.116;2023-05-03T00:12:10;94674.44;;;10.66;55.56
55590;BME280;41452;42.780;23.116;2023-05-03T00:14:35;94667.28;;;10.55;55.79
55590;BME280;41452;42.780;23.116;2023-05-03T00:17:01;94679.09;;;10.64;55.66
55590;BME280;41452;42.780;23.116;2023-05-03T00:19:26;94670.06;;;10.60;55.18
55590;BME280;41452;42.780;23.116;2023-05-03T00:21:54;94674.16;;;10.56;55.47
55590;BME280;41452;42.780;23.116;2023-05-03T00:24:20;94658.56;;;10.42;55.74
55590;BME280;41452;42.780;23.116;2023-05-03T00:26:45;94679.75;;;10.59;55.32
55590;BME280;41452;42.780;23.116;2023-05-03T00:29:10;94659.28;;;10.50;55.14
55590;BME280;41452;42.780;23.116;2023-05-03T00:31:36;94674.94;;;10.56;55.89
55590;BME280;41452;42.780;23.116;2023-05-03T00:34:01;94678.00;;;10.53;55.07
55590;BME280;41452;42.780;23.116;2023-05-03T00:36:26;94681.81;;;10.57;55.25
55590;BME280;41452;42.780;23.116;2023-05-03T00:38:52;94669.63;;;10.44;55.59
55590;BME280;41452;42.780;23.116;2023-05-03T00:41:17;94673.22;;;10.50;55.38
55590;BME280;41452;42.780;23.116;2023-05-03T00:43:43;94682.59;;;10.58;55.29
55590;BME280;41452;42.780;23.116;2023-05-03T00:46:08;94678.97;;;10.59;55.00
55590;BME280;41452;42.780;23.116;2023-05-03T00:48:34;94677.56;;;10.56;54.79
55590;BME280;41452;42.780;23.116;2023-05-03T00:51:01;94669.56;;;10.51;55.70
55590;BME280;41452;42.780;23.116;2023-05-03T00:53:28;94637.28;;;10.32;55.42
55590;BME280;41452;42.780;23.116;2023-05-03T00:55:56;94677.56;;;10.56;55.32
55590;BME280;41452;42.780;23.116;2023-05-03T00:58:23;94682.47;;;10.53;55.49
55590;BME280;41452;42.780;23.116;2023-05-03T01:00:49;94679.97;;;10.58;55.84
55590;BME280;41452;42.780;23.116;2023-05-03T01:03:14;94679.53;;;10.61;55.50
55590;BME280;41452;42.780;23.116;2023-05-03T01:05:54;94661.09;;;10.49;55.13
55590;BME280;41452;42.780;23.116;2023-05-03T01:08:32;94683.88;;;10.55;55.95
55590;BME280;41452;42.780;23.116;2023-05-03T01:11:44;94678.97;;;10.59;55.28
55590;BME280;41452;42.780;23.116;2023-05-03T01:16:27;94679.06;;;10.52;56.33
55590;BME280;41452;42.780;23.116;2023-05-03T01:18:56;94663.72;;;10.49;56.19
55590;BME280;41452;42.780;23.116;2023-05-03T01:21:26;94660.88;;;10.51;55.87
55590;BME280;41452;42.780;23.116;2023-05-03T01:24:03;94649.59;;;10.50;56.31
55590;BME280;41452;42.780;23.116;2023-05-03T01:26:31;94654.84;;;10.50;56.00
55590;BME280;41452;42.780;23.116;2023-05-03T01:28:59;94656.84;;;10.48;56.42
55590;BME280;41452;42.780;23.116;2023-05-03T01:31:34;94665.91;;;10.52;56.07
55590;BME280;41452;42.780;23.116;2023-05-03T01:36:43;94655.72;;;10.44;55.58
55590;BME280;41452;42.780;23.116;2023-05-03T01:39:13;94653.41;;;10.36;56.25
55590;BME280;41452;42.780;23.116;2023-05-03T01:41:41;94661.94;;;10.31;56.76
55590;BME280;41452;42.780;23.116;2023-05-03T01:44:08;94656.81;;;10.36;56.58
55590;BME280;41452;42.780;23.116;2023-05-03T01:46:41;94656.28;;;10.27;56.63
55590;BME280;41452;42.780;23.116;2023-05-03T01:49:07;94664.75;;;10.30;56.17
55590;BME280;41452;42.780;23.116;2023-05-03T01:51:32;94652.41;;;10.30;56.03
55590;BME280;41452;42.780;23.116;2023-05-03T01:53:58;94622.19;;;10.09;56.18
55590;BME280;41452;42.780;23.116;2023-05-03T01:56:23;94631.88;;;10.08;56.29
55590;BME280;41452;42.780;23.116;2023-05-03T01:58:48;94603.31;;;9.82;56.04
55590;BME280;41452;42.780;23.116;2023-05-03T02:01:14;94604.94;;;9.83;56.96
55590;BME280;41452;42.780;23.116;2023-05-03T02:03:39;94640.84;;;10.01;57.29
55590;BME280;41452;42.780;23.116;2023-05-03T02:06:05;94635.59;;;10.01;56.80
55590;BME280;41452;42.780;23.116;2023-05-03T02:08:30;94621.22;;;10.03;57.76
55590;BME280;41452;42.780;23.116;2023-05-03T02:10:55;94631.38;;;10.00;58.15
55590;BME280;41452;42.780;23.116;2023-05-03T02:13:21;94609.88;;;9.91;57.50
55590;BME280;41452;42.780;23.116;2023-05-03T02:15:46;94625.09;;;10.01;58.47
55590;BME280;41452;42.780;23.116;2023-05-03T02:18:12;94620.06;;;9.99;57.68
55590;BME280;41452;42.780;23.116;2023-05-03T02:20:37;94626.44;;;9.92;57.26
55590;BME280;41452;42.780;23.116;2023-05-03T02:23:03;94620.59;;;9.89;57.94
55590;BME280;41452;42.780;23.116;2023-05-03T02:25:28;94613.81;;;9.82;57.32
55590;BME280;41452;42.780;23.116;2023-05-03T02:27:54;94623.13;;;9.78;57.28
55590;BME280;41452;42.780;23.116;2023-05-03T02:30:19;94599.28;;;9.61;57.77
55590;BME280;41452;42.780;23.116;2023-05-03T02:32:45;94619.63;;;9.84;58.49
55590;BME280;41452;42.780;23.116;2023-05-03T02:35:10;94607.53;;;9.64;57.56
55590;BME280;41452;42.780;23.116;2023-05-03T02:37:36;94637.25;;;9.77;57.88
55590;BME280;41452;42.780;23.116;2023-05-03T02:40:01;94627.88;;;9.69;58.48
55590;BME280;41452;42.780;23.116;2023-05-03T02:42:26;94628.22;;;9.73;58.96
55590;BME280;41452;42.780;23.116;2023-05-03T02:44:52;94629.53;;;9.63;58.96
55590;BME280;41452;42.780;23.116;2023-05-03T02:47:17;94626.56;;;9.60;60.05
55590;BME280;41452;42.780;23.116;2023-05-03T02:49:43;94634.84;;;9.57;59.83
55590;BME280;41452;42.780;23.116;2023-05-03T02:52:08;94641.25;;;9.61;60.07
55590;BME280;41452;42.780;23.116;2023-05-03T02:54:33;94644.59;;;9.49;60.37
55590;BME280;41452;42.780;23.116;2023-05-03T02:56:59;94653.63;;;9.54;60.51
55590;BME280;41452;42.780;23.116;2023-05-03T02:59:25;94652.03;;;9.52;60.37
55590;BME280;41452;42.780;23.116;2023-05-03T03:01:51;94643.78;;;9.49;60.76
55590;BME280;41452;42.780;23.116;2023-05-03T03:04:16;94635.72;;;9.50;60.98
55590;BME280;41452;42.780;23.116;2023-05-03T03:06:41;94643.22;;;9.47;61.21
55590;BME280;41452;42.780;23.116;2023-05-03T03:09:07;94642.53;;;9.51;60.95
55590;BME280;41452;42.780;23.116;2023-05-03T03:11:32;94637.59;;;9.43;61.95
55590;BME280;41452;42.780;23.116;2023-05-03T03:13:57;94632.56;;;9.42;61.42
55590;BME280;41452;42.780;23.116;2023-05-03T03:16:23;94644.69;;;9.36;62.41
55590;BME280;41452;42.780;23.116;2023-05-03T03:18:48;94611.88;;;9.08;62.07
55590;BME280;41452;42.780;23.116;2023-05-03T03:21:14;94650.53;;;9.38;62.83
55590;BME280;41452;42.780;23.116;2023-05-03T03:23:39;94628.94;;;9.18;62.58
55590;BME280;41452;42.780;23.116;2023-05-03T03:26:04;94639.56;;;9.23;62.39
55590;BME280;41452;42.780;23.116;2023-05-03T03:28:30;94651.38;;;9.32;62.87
55590;BME280;41452;42.780;23.116;2023-05-03T03:30:55;94650.44;;;9.26;62.84
55590;BME280;41452;42.780;23.116;2023-05-03T03:33:21;94657.50;;;9.26;63.00
55590;BME280;41452;42.780;23.116;2023-05-03T03:35:46;94654.44;;;9.29;62.91
55590;BME280;41452;42.780;23.116;2023-05-03T03:38:12;94645.03;;;9.21;63.11
55590;BME280;41452;42.780;23.116;2023-05-03T03:40:37;94646.56;;;9.29;62.44
55590;BME280;41452;42.780;23.116;2023-05-03T03:43:02;94656.47;;;9.27;62.12
55590;BME280;41452;42.780;23.116;2023-05-03T03:45:28;94658.34;;;9.20;62.66
55590;BME280;41452;42.780;23.116;2023-05-03T03:47:53;94674.59;;;9.28;63.09
55590;BME280;41452;42.780;23.116;2023-05-03T03:50:22;94670.81;;;9.24;64.16
55590;BME280;41452;42.780;23.116;2023-05-03T03:52:47;94678.38;;;9.32;64.13
55590;BME280;41452;42.780;23.116;2023-05-03T03:55:12;94680.00;;;9.33;64.68
55590;BME280;41452;42.780;23.116;2023-05-03T03:57:38;94675.41;;;9.29;64.03
55590;BME280;41452;42.780;23.116;2023-05-03T04:00:03;94676.59;;;9.33;65.02
55590;BME280;41452;42.780;23.116;2023-05-03T04:02:34;94679.84;;;9.28;64.13
55590;BME280;41452;42.780;23.116;2023-05-03T04:05:00;94679.81;;;9.35;64.52
55590;BME280;41452;42.780;23.116;2023-05-03T04:07:25;94689.25;;;9.36;64.34
55590;BME280;41452;42.780;23.116;2023-05-03T04:09:50;94687.91;;;9.27;64.58
55590;BME280;41452;42.780;23.116;2023-05-03T04:12:16;94690.13;;;9.30;64.63
55590;BME280;41452;42.780;23.116;2023-05-03T04:14:41;94678.88;;;9.23;64.75
55590;BME280;41452;42.780;23.116;2023-05-03T04:17:06;94662.00;;;9.19;64.54
55590;BME280;41452;42.780;23.116;2023-05-03T04:19:32;94691.88;;;9.36;65.46
55590;BME280;41452;42.780;23.116;2023-05-03T04:21:57;94671.59;;;9.25;64.69
55590;BME280;41452;42.780;23.116;2023-05-03T04:24:23;94688.28;;;9.30;64.97
55590;BME280;41452;42.780;23.116;2023-05-03T04:26:48;94686.91;;;9.28;65.03
55590;BME280;41452;42.780;23.116;2023-05-03T04:29:15;94702.06;;;9.26;65.37
55590;BME280;41452;42.780;23.116;2023-05-03T04:31:41;94702.84;;;9.26;65.59
55590;BME280;41452;42.780;23.116;2023-05-03T04:34:07;94718.78;;;9.25;65.57
55590;BME280;41452;42.780;23.116;2023-05-03T04:36:34;94689.69;;;9.08;65.98
55590;BME280;41452;42.780;23.116;2023-05-03T04:39:00;94717.59;;;9.21;65.78
55590;BME280;41452;42.780;23.116;2023-05-03T04:41:25;94726.44;;;9.26;66.58
55590;BME280;41452;42.780;23.116;2023-05-03T04:43:50;94731.47;;;9.28;66.34
55590;BME280;41452;42.780;23.116;2023-05-03T04:46:16;94714.81;;;9.16;66.02
55590;BME280;41452;42.780;23.116;2023-05-03T04:48:43;94713.38;;;9.20;66.60
55590;BME280;41452;42.780;23.116;2023-05-03T04:51:09;94729.38;;;9.37;67.16
55590;BME280;41452;42.780;23.116;2023-05-03T04:53:34;94726.97;;;9.35;66.54
55590;BME280;41452;42.780;23.116;2023-05-03T04:55:59;94726.13;;;9.41;67.14
55590;BME280;41452;42.780;23.116;2023-05-03T04:58:25;94739.44;;;9.40;67.59
55590;BME280;41452;42.780;23.116;2023-05-03T05:00:50;94744.84;;;9.45;67.25
55590;BME280;41452;42.780;23.116;2023-05-03T05:03:16;94748.66;;;9.49;67.08
55590;BME280;41452;42.780;23.116;2023-05-03T05:05:41;94750.03;;;9.51;65.96
55590;BME280;41452;42.780;23.116;2023-05-03T05:08:07;94757.28;;;9.56;66.41
55590;BME280;41452;42.780;23.116;2023-05-03T05:10:36;94743.41;;;9.49;67.43
55590;BME280;41452;42.780;23.116;2023-05-03T05:13:02;94764.50;;;9.61;67.86
55590;BME280;41452;42.780;23.116;2023-05-03T05:15:28;94775.56;;;9.63;66.64
55590;BME280;41452;42.780;23.116;2023-05-03T05:17:53;94780.38;;;9.66;65.83
55590;BME280;41452;42.780;23.116;2023-05-03T05:20:18;94774.41;;;9.59;65.62
55590;BME280;41452;42.780;23.116;2023-05-03T05:22:44;94774.97;;;9.61;65.23
55590;BME280;41452;42.780;23.116;2023-05-03T05:25:09;94772.81;;;9.58;66.83
55590;BME280;41452;42.780;23.116;2023-05-03T05:27:34;94772.34;;;9.61;66.34
55590;BME280;41452;42.780;23.116;2023-05-03T05:30:00;94774.97;;;9.61;68.70
55590;BME280;41452;42.780;23.116;2023-05-03T05:32:26;94774.81;;;9.56;71.56
55590;BME280;41452;42.780;23.116;2023-05-03T05:34:51;94777.88;;;9.52;72.48
55590;BME280;41452;42.780;23.116;2023-05-03T05:37:23;94778.88;;;9.51;73.72
55590;BME280;41452;42.780;23.116;2023-05-03T05:39:49;94765.63;;;9.40;75.81
55590;BME280;41452;42.780;23.116;2023-05-03T05:42:15;94769.34;;;9.32;74.00
55590;BME280;41452;42.780;23.116;2023-05-03T05:44:40;94765.75;;;9.26;74.86
55590;BME280;41452;42.780;23.116;2023-05-03T05:47:07;94780.00;;;9.37;76.90
55590;BME280;41452;42.780;23.116;2023-05-03T05:49:32;94786.03;;;9.38;78.80
55590;BME280;41452;42.780;23.116;2023-05-03T05:51:57;94786.09;;;9.31;79.66
55590;BME280;41452;42.780;23.116;2023-05-03T05:54:23;94787.09;;;9.30;80.55
55590;BME280;41452;42.780;23.116;2023-05-03T05:56:48;94789.19;;;9.14;81.26
55590;BME280;41452;42.780;23.116;2023-05-03T05:59:15;94783.63;;;9.04;82.43
55590;BME280;41452;42.780;23.116;2023-05-03T06:01:41;94781.41;;;9.01;86.08
55590;BME280;41452;42.780;23.116;2023-05-03T06:04:10;94781.63;;;9.00;86.24
55590;BME280;41452;42.780;23.116;2023-05-03T06:06:35;94784.06;;;8.94;85.30
55590;BME280;41452;42.780;23.116;2023-05-03T06:09:01;94770.97;;;8.94;88.04
55590;BME280;41452;42.780;23.116;2023-05-03T06:11:27;94785.63;;;9.02;84.69
55590;BME280;41452;42.780;23.116;2023-05-03T06:13:54;94794.09;;;9.04;85.08
55590;BME280;41452;42.780;23.116;2023-05-03T06:16:20;94785.22;;;9.05;83.28
55590;BME280;41452;42.780;23.116;2023-05-03T06:18:46;94757.88;;;8.88;84.60
55590;BME280;41452;42.780;23.116;2023-05-03T06:21:11;94782.00;;;9.03;82.24
55590;BME280;41452;42.780;23.116;2023-05-03T06:23:36;94778.19;;;8.99;82.71
55590;BME280;41452;42.780;23.116;2023-05-03T06:26:04;94784.44;;;8.98;83.88
55590;BME280;41452;42.780;23.116;2023-05-03T06:28:29;94757.47;;;8.91;86.06
55590;BME280;41452;42.780;23.116;2023-05-03T06:30:55;94753.19;;;9.03;85.72
55590;BME280;41452;42.780;23.116;2023-05-03T06:33:20;94781.09;;;9.23;82.83
55590;BME280;41452;42.780;23.116;2023-05-03T06:35:45;94736.09;;;9.01;82.35
55590;BME280;41452;42.780;23.116;2023-05-03T06:38:14;94779.25;;;9.23;80.55
55590;BME280;41452;42.780;23.116;2023-05-03T06:40:39;94785.06;;;9.32;79.64
55590;BME280;41452;42.780;23.116;2023-05-03T06:43:07;94772.53;;;9.34;82.29
55590;BME280;41452;42.780;23.116;2023-05-03T06:45:33;94765.06;;;9.38;79.88
55590;BME280;41452;42.780;23.116;2023-05-03T06:47:58;94767.06;;;9.42;78.37
55590;BME280;41452;42.780;23.116;2023-05-03T06:50:23;94757.31;;;9.49;78.52
55590;BME280;41452;42.780;23.116;2023-05-03T06:52:50;94742.28;;;9.38;74.95
55590;BME280;41452;42.780;23.116;2023-05-03T06:55:15;94763.91;;;9.59;78.32
55590;BME280;41452;42.780;23.116;2023-05-03T06:57:41;94767.50;;;9.64;76.62
55590;BME280;41452;42.780;23.116;2023-05-03T07:00:07;94764.94;;;9.58;77.21
55590;BME280;41452;42.780;23.116;2023-05-03T07:02:33;94746.63;;;9.51;76.93
55590;BME280;41452;42.780;23.116;2023-05-03T07:04:59;94748.38;;;9.57;75.29
55590;BME280;41452;42.780;23.116;2023-05-03T07:07:24;94750.22;;;9.57;75.85
55590;BME280;41452;42.780;23.116;2023-05-03T07:09:50;94741.97;;;9.53;74.47
55590;BME280;41452;42.780;23.116;2023-05-03T07:12:15;94734.31;;;9.51;75.29
55590;BME280;41452;42.780;23.116;2023-05-03T07:14:41;94691.56;;;9.26;77.54
55590;BME280;41452;42.780;23.116;2023-05-03T07:17:07;94718.88;;;9.43;77.75
55590;BME280;41452;42.780;23.116;2023-05-03T07:19:32;94751.34;;;9.67;77.15
55590;BME280;41452;42.780;23.116;2023-05-03T07:21:58;94753.31;;;9.72;76.01
55590;BME280;41452;42.780;23.116;2023-05-03T07:24:23;94752.28;;;9.73;76.76
55590;BME280;41452;42.780;23.116;2023-05-03T07:26:50;94743.78;;;9.52;76.09
55590;BME280;41452;42.780;23.116;2023-05-03T07:29:16;94771.84;;;9.77;79.30
55590;BME280;41452;42.780;23.116;2023-05-03T07:31:41;94775.84;;;9.80;77.36
55590;BME280;41452;42.780;23.116;2023-05-03T07:34:08;94770.66;;;9.73;77.77
55590;BME280;41452;42.780;23.116;2023-05-03T07:36:34;94765.19;;;9.75;78.76
55590;BME280;41452;42.780;23.116;2023-05-03T07:38:59;94754.06;;;9.79;76.33
55590;BME280;41452;42.780;23.116;2023-05-03T07:41:25;94775.47;;;10.01;77.24
55590;BME280;41452;42.780;23.116;2023-05-03T07:43:50;94753.94;;;9.93;77.55
55590;BME280;41452;42.780;23.116;2023-05-03T07:46:16;94730.91;;;9.95;76.61
55590;BME280;41452;42.780;23.116;2023-05-03T07:48:41;94763.25;;;10.14;76.23
55590;BME280;41452;42.780;23.116;2023-05-03T07:51:07;94759.75;;;10.20;75.78
55590;BME280;41452;42.780;23.116;2023-05-03T07:53:32;94767.75;;;10.25;75.09
55590;BME280;41452;42.780;23.116;2023-05-03T07:55:59;94737.78;;;10.14;76.20
55590;BME280;41452;42.780;23.116;2023-05-03T07:58:25;94758.53;;;10.41;75.44
55590;BME280;41452;42.780;23.116;2023-05-03T08:00:50;94755.13;;;10.40;75.66
55590;BME280;41452;42.780;23.116;2023-05-03T08:03:16;94755.28;;;10.45;72.74
55590;BME280;41452;42.780;23.116;2023-05-03T08:05:42;94751.47;;;10.41;73.78
55590;BME280;41452;42.780;23.116;2023-05-03T08:08:08;94754.47;;;10.45;73.38
55590;BME280;41452;42.780;23.116;2023-05-03T08:10:33;94748.41;;;10.44;72.84
55590;BME280;41452;42.780;23.116;2023-05-03T08:13:02;94750.38;;;10.49;73.26
55590;BME280;41452;42.780;23.116;2023-05-03T08:15:28;94756.22;;;10.51;73.65
55590;BME280;41452;42.780;23.116;2023-05-03T08:17:53;94765.19;;;10.62;73.68
55590;BME280;41452;42.780;23.116;2023-05-03T08:20:19;94744.16;;;10.62;74.95
55590;BME280;41452;42.780;23.116;2023-05-03T08:22:45;94760.34;;;10.77;72.92
55590;BME280;41452;42.780;23.116;2023-05-03T08:25:10;94769.75;;;10.85;74.68
55590;BME280;41452;42.780;23.116;2023-05-03T08:27:36;94775.38;;;10.89;73.66
55590;BME280;41452;42.780;23.116;2023-05-03T08:30:03;94777.69;;;10.97;75.16
55590;BME280;41452;42.780;23.116;2023-05-03T08:32:29;94761.00;;;10.91;73.40
55590;BME280;41452;42.780;23.116;2023-05-03T08:34:54;94773.22;;;11.16;74.65
55590;BME280;41452;42.780;23.116;2023-05-03T08:37:21;94735.00;;;11.01;73.75
55590;BME280;41452;42.780;23.116;2023-05-03T08:39:46;94772.84;;;11.43;71.63
55590;BME280;41452;42.780;23.116;2023-05-03T08:42:12;94771.22;;;11.41;73.20
55590;BME280;41452;42.780;23.116;2023-05-03T08:44:44;94762.91;;;11.45;72.82
55590;BME280;41452;42.780;23.116;2023-05-03T08:47:10;94764.38;;;11.40;71.39
55590;BME280;41452;42.780;23.116;2023-05-03T08:49:36;94755.38;;;11.48;71.61
55590;BME280;41452;42.780;23.116;2023-05-03T08:52:05;94760.31;;;11.68;70.75
55590;BME280;41452;42.780;23.116;2023-05-03T08:54:30;94739.84;;;11.70;70.48
55590;BME280;41452;42.780;23.116;2023-05-03T08:56:56;94725.44;;;11.85;71.70
55590;BME280;41452;42.780;23.116;2023-05-03T08:59:21;94766.69;;;12.26;72.07
55590;BME280;41452;42.780;23.116;2023-05-03T09:01:46;94759.34;;;12.28;69.27
55590;BME280;41452;42.780;23.116;2023-05-03T09:04:12;94762.53;;;12.30;68.53
55590;BME280;41452;42.780;23.116;2023-05-03T09:06:38;94764.03;;;12.14;70.03
55590;BME280;41452;42.780;23.116;2023-05-03T09:09:05;94767.13;;;12.11;68.79
55590;BME280;41452;42.780;23.116;2023-05-03T09:11:36;94755.91;;;12.04;68.65
55590;BME280;41452;42.780;23.116;2023-05-03T09:14:17;94744.31;;;11.82;68.03
55590;BME280;41452;42.780;23.116;2023-05-03T09:16:44;94756.72;;;11.93;68.40
55590;BME280;41452;42.780;23.116;2023-05-03T09:19:11;94755.44;;;11.95;70.61
55590;BME280;41452;42.780;23.116;2023-05-03T09:21:38;94748.94;;;12.10;71.26
55590;BME280;41452;42.780;23.116;2023-05-03T09:24:18;94742.75;;;12.28;70.88
55590;BME280;41452;42.780;23.116;2023-05-03T09:26:45;94730.44;;;12.45;71.58
55590;BME280;41452;42.780;23.116;2023-05-03T09:29:31;94729.03;;;12.66;69.69
55590;BME280;41452;42.780;23.116;2023-05-03T09:32:00;94720.91;;;12.68;70.95
55590;BME280;41452;42.780;23.116;2023-05-03T09:34:26;94723.28;;;12.81;72.40
55590;BME280;41452;42.780;23.116;2023-05-03T09:36:51;94723.13;;;13.17;68.88
55590;BME280;41452;42.780;23.116;2023-05-03T09:39:18;94715.56;;;13.20;68.30
55590;BME280;41452;42.780;23.116;2023-05-03T09:41:44;94696.06;;;12.92;66.06
55590;BME280;41452;42.780;23.116;2023-05-03T09:44:09;94708.72;;;13.07;65.32
55590;BME280;41452;42.780;23.116;2023-05-03T09:46:35;94699.13;;;13.01;66.41
55590;BME280;41452;42.780;23.116;2023-05-03T09:49:01;94706.03;;;13.19;67.08
55590;BME280;41452;42.780;23.116;2023-05-03T09:51:28;94712.16;;;13.37;69.15
55590;BME280;41452;42.780;23.116;2023-05-03T09:53:55;94696.19;;;13.43;67.69
55590;BME280;41452;42.780;23.116;2023-05-03T09:56:20;94703.38;;;13.48;66.41
55590;BME280;41452;42.780;23.116;2023-05-03T09:58:51;94703.03;;;13.44;68.05
55590;BME280;41452;42.780;23.116;2023-05-03T10:01:16;94689.56;;;13.58;67.89
55590;BME280;41452;42.780;23.116;2023-05-03T10:03:44;94696.75;;;13.79;67.43
55590;BME280;41452;42.780;23.116;2023-05-03T10:06:30;94695.22;;;13.66;65.66
55590;BME280;41452;42.780;23.116;2023-05-03T10:09:03;94696.91;;;13.73;66.12
55590;BME280;41452;42.780;23.116;2023-05-03T10:11:32;94694.00;;;13.91;66.87
55590;BME280;41452;42.780;23.116;2023-05-03T10:13:58;94684.50;;;13.90;66.77
55590;BME280;41452;42.780;23.116;2023-05-03T10:16:28;94689.91;;;14.00;64.08
55590;BME280;41452;42.780;23.116;2023-05-03T10:19:13;94682.06;;;14.05;64.02
55590;BME280;41452;42.780;23.116;2023-05-03T10:24:24;94668.25;;;14.20;64.57
55590;BME280;41452;42.780;23.116;2023-05-03T10:26:50;94687.97;;;14.35;63.10
55590;BME280;41452;42.780;23.116;2023-05-03T10:32:03;94647.09;;;14.37;63.61
55590;BME280;41452;42.780;23.116;2023-05-03T10:34:31;94661.56;;;14.57;64.10
55590;BME280;41452;42.780;23.116;2023-05-03T10:37:00;94647.75;;;14.72;63.33
55590;BME280;41452;42.780;23.116;2023-05-03T10:39:26;94655.31;;;14.90;65.30
55590;BME280;41452;42.780;23.116;2023-05-03T10:42:01;94655.53;;;15.11;64.46
55590;BME280;41452;42.780;23.116;2023-05-03T10:44:33;94651.09;;;15.16;63.33
55590;BME280;41452;42.780;23.116;2023-05-03T10:47:12;94661.53;;;15.28;61.64
55590;BME280;41452;42.780;23.116;2023-05-03T10:49:38;94654.50;;;14.85;62.44
55590;BME280;41452;42.780;23.116;2023-05-03T10:57:39;94669.69;;;15.27;60.52
55590;BME280;41452;42.780;23.116;2023-05-03T11:00:11;94659.38;;;15.25;60.20
55590;BME280;41452;42.780;23.116;2023-05-03T11:02:52;94655.44;;;15.33;62.06
55590;BME280;41452;42.780;23.116;2023-05-03T11:05:25;94653.53;;;15.23;61.09
55590;BME280;41452;42.780;23.116;2023-05-03T11:08:26;94636.06;;;15.22;59.45
55590;BME280;41452;42.780;23.116;2023-05-03T11:10:58;94642.84;;;15.45;61.86
55590;BME280;41452;42.780;23.116;2023-05-03T11:13:25;94634.13;;;15.45;61.49
55590;BME280;41452;42.780;23.116;2023-05-03T11:15:55;94645.09;;;15.58;62.43
55590;BME280;41452;42.780;23.116;2023-05-03T11:18:21;94633.44;;;15.59;60.88
55590;BME280;41452;42.780;23.116;2023-05-03T11:20:48;94648.28;;;15.61;61.78
55590;BME280;41452;42.780;23.116;2023-05-03T11:23:14;94646.94;;;15.63;60.17
55590;BME280;41452;42.780;23.116;2023-05-03T11:25:39;94648.81;;;15.63;60.90
55590;BME280;41452;42.780;23.116;2023-05-03T11:28:05;94627.56;;;15.52;60.65
55590;BME280;41452;42.780;23.116;2023-05-03T11:30:32;94629.19;;;15.58;59.90
55590;BME280;41452;42.780;23.116;2023-05-03T11:32:59;94648.16;;;15.77;61.05
55590;BME280;41452;42.780;23.116;2023-05-03T11:35:24;94644.22;;;15.85;62.79
55590;BME280;41452;42.780;23.116;2023-05-03T11:37:52;94619.88;;;15.83;61.89
55590;BME280;41452;42.780;23.116;2023-05-03T11:40:18;94624.63;;;15.86;63.49
55590;BME280;41452;42.780;23.116;2023-05-03T11:45:23;94618.69;;;15.69;65.50
55590;BME280;41452;42.780;23.116;2023-05-03T11:47:52;94605.44;;;15.74;64.99
55590;BME280;41452;42.780;23.116;2023-05-03T11:50:18;94611.66;;;15.90;65.03
55590;BME280;41452;42.780;23.116;2023-05-03T11:52:50;94605.88;;;15.93;62.14
55590;BME280;41452;42.780;23.116;2023-05-03T11:55:16;94597.16;;;15.98;62.60
55590;BME280;41452;42.780;23.116;2023-05-03T11:57:43;94587.94;;;16.10;63.03
55590;BME280;41452;42.780;23.116;2023-05-03T12:00:14;94559.91;;;16.25;62.33
55590;BME280;41452;42.780;23.116;2023-05-03T12:02:41;94548.28;;;16.36;60.21
55590;BME280;41452;42.780;23.116;2023-05-03T12:05:07;94557.84;;;16.42;60.80
55590;BME280;41452;42.780;23.116;2023-05-03T12:07:35;94563.44;;;16.51;59.00
55590;BME280;41452;42.780;23.116;2023-05-03T12:10:14;94548.03;;;16.43;60.25
55590;BME280;41452;42.780;23.116;2023-05-03T12:12:54;94535.84;;;16.52;61.00
55590;BME280;41452;42.780;23.116;2023-05-03T12:15:54;94570.94;;;16.85;59.82
55590;BME280;41452;42.780;23.116;2023-05-03T12:18:20;94567.22;;;16.81;60.18
55590;BME280;41452;42.780;23.116;2023-05-03T12:20:54;94544.38;;;16.75;60.45
55590;BME280;41452;42.780;23.116;2023-05-03T12:23:22;94559.25;;;16.81;60.44
55590;BME280;41452;42.780;23.116;2023-05-03T12:25:48;94555.03;;;16.85;62.13
55590;BME280;41452;42.780;23.116;2023-05-03T12:28:15;94549.16;;;16.78;61.25
55590;BME280;41452;42.780;23.116;2023-05-03T12:30:41;94544.63;;;16.68;61.63
55590;BME280;41452;42.780;23.116;2023-05-03T12:33:07;94528.44;;;16.54;61.17
55590;BME280;41452;42.780;23.116;2023-05-03T12:35:34;94531.38;;;16.58;61.96
55590;BME280;41452;42.780;23.116;2023-05-03T12:37:59;94527.88;;;16.37;60.95
55590;BME280;41452;42.780;23.116;2023-05-03T12:40:27;94546.88;;;16.08;60.91
55590;BME280;41452;42.780;23.116;2023-05-03T12:42:52;94545.25;;;16.02;62.56
55590;BME280;41452;42.780;23.116;2023-05-03T12:45:18;94537.78;;;15.88;62.57
55590;BME280;41452;42.780;23.116;2023-05-03T12:47:44;94497.41;;;15.66;62.38
55590;BME280;41452;42.780;23.116;2023-05-03T12:50:09;94529.19;;;15.66;63.28
55590;BME280;41452;42.780;23.116;2023-05-03T12:52:35;94540.06;;;15.69;63.98
55590;BME280;41452;42.780;23.116;2023-05-03T12:55:02;94541.63;;;15.65;63.68
55590;BME280;41452;42.780;23.116;2023-05-03T12:57:28;94512.06;;;15.36;64.20
55590;BME280;41452;42.780;23.116;2023-05-03T12:59:55;94539.03;;;15.33;65.55
55590;BME280;41452;42.780;23.116;2023-05-03T13:02:21;94529.91;;;15.13;66.42
55590;BME280;41452;42.780;23.116;2023-05-03T13:04:47;94534.91;;;15.10;64.90
55590;BME280;41452;42.780;23.116;2023-05-03T13:07:20;94539.50;;;14.87;65.53
55590;BME280;41452;42.780;23.116;2023-05-03T13:09:46;94550.59;;;14.84;66.01
55590;BME280;41452;42.780;23.116;2023-05-03T13:12:11;94537.28;;;14.74;67.24